Kezdőlap
METAR-TAF:

METAR-TAF

Repülőterek :

South Wood County Airport (Alexander Field)

Wisconsin Rapids, Wisconsin, Amerikai Egyesült Államok

földrajzi szélesség: 44-21-33N, földrajzi hosszúság: 089-50-13W, magasság: 311 m

Jelenlegi meteorológiai megfigyelések

A jelentés 26 perccel ezelõtt készült, 17:54 UTC
Különbözõ irányokból fújó szél 5 kt
Hőmérséklet 7°C
Páratartalom 66%
Légköri nyomás 1019 hPa
Látótávolság: 16.1 km
Borult 1800 lábon

METAR: KISW 011754Z AUTO VRB05KT 10SM OVC018 07/01 A3010 RMK AO2 SLP202 T00670011 10072 21028 58008

Idő: 13:20 (18:20 UTC)


TAF: hiányzik

Meteorológiai megfigyelések és előrejelzések több, mint 4000 repülőtéren (METAR és TAF jelentéseket).

A térképen piros és sárga pontok jelzik az elérhető meteorológiai állomásokat.

Mozgassa az egeret a pont fölött, hogy megjelenjen az állomás neve.

Azután kattintson az időjárási megfigyelések és előrejelzések megtekintéséhez.

A térkép megváltoztatása: kattintson a fekete keresztel jelölt zöld gombra ráközelítéshez, a vonallal jelölt zöld gombra távolításhoz, vagy a zöld nyilakra a szomszédos térképek eléréséhez.


METAR-TAF: